createdAt,value
2019-03-23T00:00:13.924Z,37.22
2019-03-23T00:02:43.102Z,36.88
2019-03-23T00:05:13.929Z,36.94
2019-03-23T00:07:43.230Z,36.97
2019-03-23T00:10:12.523Z,37.16
2019-03-23T00:12:41.724Z,37.04
2019-03-23T00:15:11.692Z,36.95
2019-03-23T00:17:40.871Z,36.40
2019-03-23T00:20:10.057Z,36.38
2019-03-23T00:22:39.257Z,36.70
2019-03-23T00:25:08.434Z,36.91
2019-03-23T00:27:37.645Z,37.20
2019-03-23T00:30:12.737Z,37.18
2019-03-23T00:32:41.975Z,37.01
2019-03-23T00:35:11.300Z,37.01
2019-03-23T00:37:40.555Z,37.03
2019-03-23T00:40:10.156Z,37.24
2019-03-23T00:42:39.346Z,37.72
2019-03-23T00:45:09.255Z,37.94
2019-03-23T00:47:38.495Z,37.36
2019-03-23T00:50:08.519Z,37.58
2019-03-23T00:52:37.704Z,36.68
2019-03-23T00:55:07.742Z,36.69
2019-03-23T00:57:36.995Z,36.65
2019-03-23T01:00:08.513Z,36.62
2019-03-23T01:02:37.767Z,36.56
2019-03-23T01:05:07.755Z,36.89
2019-03-23T01:07:36.996Z,36.96
2019-03-23T01:10:08.400Z,36.83
2019-03-23T01:12:37.594Z,36.91
2019-03-23T01:15:09.023Z,37.02
2019-03-23T01:17:38.250Z,37.16
2019-03-23T01:20:09.686Z,36.83
2019-03-23T01:22:39.010Z,36.54
2019-03-23T01:25:09.687Z,36.94
2019-03-23T01:27:38.872Z,37.24
2019-03-23T01:30:11.497Z,37.10
2019-03-23T01:32:40.717Z,36.79
2019-03-23T01:35:09.984Z,36.76
2019-03-23T01:37:39.153Z,37.11
2019-03-23T01:40:08.623Z,37.28
2019-03-23T01:42:37.809Z,37.13
2019-03-23T01:45:09.743Z,37.15
2019-03-23T01:47:39.015Z,37.10
2019-03-23T01:50:09.030Z,37.52
2019-03-23T01:52:38.228Z,37.41
2019-03-23T01:55:07.938Z,37.56
2019-03-23T01:57:37.146Z,37.60
2019-03-23T02:00:09.285Z,37.43
2019-03-23T02:02:38.543Z,36.88
2019-03-23T02:05:08.048Z,37.27
2019-03-23T02:07:37.278Z,37.88
2019-03-23T02:10:07.699Z,37.73
2019-03-23T02:12:36.877Z,37.27
2019-03-23T02:15:07.792Z,37.13
2019-03-23T02:17:37.014Z,36.77
2019-03-23T02:20:09.177Z,37.11
2019-03-23T02:22:38.692Z,37.24
2019-03-23T02:25:08.251Z,37.11
2019-03-23T02:27:37.434Z,37.50
2019-03-23T02:30:09.619Z,37.47
2019-03-23T02:32:38.840Z,37.25
2019-03-23T02:35:08.432Z,37.25
2019-03-23T02:37:37.698Z,37.63
2019-03-23T02:40:08.389Z,37.46
2019-03-23T02:42:37.600Z,37.40
2019-03-23T02:45:09.195Z,37.51
2019-03-23T02:47:40.067Z,37.65
2019-03-23T02:50:10.241Z,37.54
2019-03-23T02:52:39.466Z,37.66
2019-03-23T02:55:09.692Z,37.56
2019-03-23T02:57:39.112Z,37.60
2019-03-23T03:00:10.871Z,37.11
2019-03-23T03:02:40.052Z,37.23
2019-03-23T03:05:09.373Z,36.90
2019-03-23T03:07:42.421Z,36.69
2019-03-23T03:10:11.100Z,36.63
2019-03-23T03:12:40.328Z,36.69
2019-03-23T03:15:10.065Z,37.57
2019-03-23T03:17:39.262Z,37.29
2019-03-23T03:20:09.717Z,36.98
2019-03-23T03:22:38.906Z,36.65
2019-03-23T03:25:08.657Z,37.36
2019-03-23T03:27:37.883Z,37.22
2019-03-23T03:30:10.031Z,36.93
2019-03-23T03:32:39.199Z,37.20
2019-03-23T03:35:08.505Z,37.29
2019-03-23T03:37:37.680Z,37.37
2019-03-23T03:40:08.609Z,37.50
2019-03-23T03:42:37.929Z,37.28
2019-03-23T03:45:07.844Z,37.20
2019-03-23T03:47:37.032Z,36.90
2019-03-23T03:50:07.362Z,36.68
2019-03-23T03:52:36.648Z,36.88
2019-03-23T03:55:06.695Z,36.66
2019-03-23T03:57:35.897Z,36.77
2019-03-23T04:00:08.686Z,36.91
2019-03-23T04:02:38.437Z,36.56
2019-03-23T04:05:07.630Z,36.33
2019-03-23T04:07:36.824Z,36.58
2019-03-23T04:10:08.162Z,36.19
2019-03-23T04:12:37.465Z,36.50
2019-03-23T04:15:07.961Z,37.07
2019-03-23T04:17:37.136Z,38.55
2019-03-23T04:20:06.839Z,39.24
2019-03-23T04:22:36.034Z,38.79
2019-03-23T04:25:09.523Z,38.85
2019-03-23T04:27:38.965Z,38.25
2019-03-23T04:30:10.357Z,39.20
2019-03-23T04:32:39.714Z,39.13
2019-03-23T04:35:09.033Z,37.90
2019-03-23T04:37:38.311Z,37.53
2019-03-23T04:40:12.052Z,37.69
2019-03-23T04:42:41.386Z,36.99
2019-03-23T04:45:11.052Z,37.39
2019-03-23T04:47:40.364Z,36.84
2019-03-23T04:50:10.853Z,37.00
2019-03-23T04:52:40.212Z,36.71
2019-03-23T04:55:12.001Z,36.59
2019-03-23T04:57:41.264Z,36.54
2019-03-23T05:00:13.183Z,36.52
2019-03-23T05:02:42.584Z,35.29
2019-03-23T05:05:11.965Z,34.21
2019-03-23T05:07:41.362Z,33.53
2019-03-23T05:10:12.086Z,31.48
2019-03-23T05:12:41.297Z,30.45
2019-03-23T05:15:10.693Z,29.00
2019-03-23T05:17:39.964Z,27.57
2019-03-23T05:20:10.758Z,26.48
2019-03-23T05:22:40.192Z,26.14
2019-03-23T05:25:12.668Z,24.84
2019-03-23T05:27:41.916Z,24.46
2019-03-23T05:30:11.192Z,23.72
2019-03-23T05:32:40.465Z,23.61
2019-03-23T05:35:09.848Z,23.50
2019-03-23T05:37:39.188Z,22.46
2019-03-23T05:40:08.536Z,22.69
2019-03-23T05:42:37.907Z,22.19
2019-03-23T05:45:07.095Z,21.96
2019-03-23T05:47:36.357Z,21.68
2019-03-23T05:50:07.240Z,21.91
2019-03-23T05:52:36.493Z,21.89
2019-03-23T05:55:06.327Z,20.78
2019-03-23T05:57:35.745Z,20.19
2019-03-23T06:00:07.499Z,20.30
2019-03-23T06:02:36.773Z,19.88
2019-03-23T06:05:07.147Z,18.64
2019-03-23T06:07:36.486Z,17.81
2019-03-23T06:10:06.758Z,18.13
2019-03-23T06:12:36.148Z,18.00
2019-03-23T06:15:05.995Z,18.15
2019-03-23T06:17:35.533Z,17.14
2019-03-23T06:20:06.525Z,17.50
2019-03-23T06:22:36.004Z,16.65
2019-03-23T06:25:08.129Z,17.16
2019-03-23T06:27:36.902Z,17.33
2019-03-23T06:30:09.021Z,17.30
2019-03-23T06:32:37.606Z,18.40
2019-03-23T06:35:07.785Z,18.24
2019-03-23T06:37:37.219Z,17.80
2019-03-23T06:40:11.017Z,18.24
2019-03-23T06:42:40.295Z,18.19
2019-03-23T06:45:10.578Z,19.33
2019-03-23T06:47:39.975Z,19.40
2019-03-23T06:50:12.673Z,19.38
2019-03-23T06:52:42.014Z,19.41
2019-03-23T06:55:11.821Z,20.15
2019-03-23T06:57:41.102Z,20.27
2019-03-23T07:00:13.109Z,20.04
2019-03-23T07:02:42.399Z,21.24
2019-03-23T07:05:11.819Z,19.44
2019-03-23T07:07:41.205Z,18.74
2019-03-23T07:10:12.297Z,19.99
2019-03-23T07:12:41.593Z,20.45
2019-03-23T07:15:19.920Z,19.97
2019-03-23T07:17:42.993Z,19.67
2019-03-23T07:20:14.253Z,18.55
2019-03-23T07:22:44.179Z,17.91
2019-03-23T07:25:13.572Z,18.82
2019-03-23T07:27:42.903Z,19.10
2019-03-23T07:30:17.474Z,18.95
2019-03-23T07:32:46.719Z,19.85
2019-03-23T07:35:16.099Z,18.91
2019-03-23T07:37:45.377Z,17.79
2019-03-23T07:40:14.624Z,17.80
2019-03-23T07:42:44.128Z,18.40
2019-03-23T07:45:14.975Z,18.70
2019-03-23T07:47:44.287Z,19.47
2019-03-23T07:50:14.472Z,18.89
2019-03-23T07:52:44.869Z,18.52
2019-03-23T07:55:16.123Z,18.48
2019-03-23T07:57:45.418Z,18.81
2019-03-23T08:00:20.832Z,19.23
2019-03-23T08:02:50.935Z,18.12
2019-03-23T08:05:21.631Z,18.82
2019-03-23T08:07:51.140Z,18.77
2019-03-23T08:10:31.063Z,18.29
2019-03-23T08:13:00.317Z,18.69
2019-03-23T08:15:30.062Z,17.72
2019-03-23T08:17:59.314Z,18.51
2019-03-23T08:20:28.592Z,19.46
2019-03-23T08:22:57.765Z,18.41
2019-03-23T08:25:27.125Z,18.87
2019-03-23T08:27:56.493Z,18.52
2019-03-23T08:30:25.676Z,17.83
2019-03-23T08:32:55.176Z,17.93
2019-03-23T08:35:24.446Z,18.15
2019-03-23T08:37:53.766Z,18.24
2019-03-23T08:40:23.236Z,17.60
2019-03-23T08:42:52.562Z,17.62
2019-03-23T08:45:21.937Z,17.38
2019-03-23T08:47:51.200Z,17.37
2019-03-23T08:50:20.483Z,17.64
2019-03-23T08:52:49.847Z,16.49
2019-03-23T08:55:19.298Z,16.83
2019-03-23T08:57:48.557Z,14.81
2019-03-23T09:00:17.943Z,16.15
2019-03-23T09:02:47.400Z,16.29
2019-03-23T09:05:16.655Z,15.99
2019-03-23T09:07:45.980Z,16.45
2019-03-23T09:10:15.591Z,16.27
2019-03-23T09:12:44.974Z,16.94
2019-03-23T09:15:14.249Z,16.33
2019-03-23T09:17:43.633Z,17.64
2019-03-23T09:20:12.967Z,17.15
2019-03-23T09:22:42.298Z,16.43
2019-03-23T09:25:11.575Z,16.55
2019-03-23T09:27:40.910Z,16.92
2019-03-23T09:30:11.940Z,16.98
2019-03-23T09:32:41.149Z,17.39
2019-03-23T09:35:10.796Z,17.14
2019-03-23T09:37:40.212Z,16.77
2019-03-23T09:40:11.411Z,15.50
2019-03-23T09:42:40.849Z,15.97
2019-03-23T09:45:10.140Z,15.58
2019-03-23T09:47:39.569Z,15.28
2019-03-23T09:50:10.626Z,14.51
2019-03-23T09:52:39.965Z,14.23
2019-03-23T09:55:09.199Z,15.12
2019-03-23T09:57:38.442Z,16.12
2019-03-23T10:00:09.754Z,15.82
2019-03-23T10:02:39.150Z,16.33
2019-03-23T10:05:08.394Z,16.28
2019-03-23T10:07:37.667Z,16.82
2019-03-23T10:10:07.660Z,16.45
2019-03-23T10:12:37.060Z,16.57
2019-03-23T10:15:07.259Z,16.90
2019-03-23T10:17:36.446Z,17.06
2019-03-23T10:20:06.771Z,16.78
2019-03-23T10:22:36.084Z,17.89
2019-03-23T10:25:08.490Z,17.90
2019-03-23T10:27:37.756Z,16.96
2019-03-23T10:30:10.801Z,16.80
2019-03-23T10:32:40.190Z,17.21
2019-03-23T10:35:10.626Z,17.96
2019-03-23T10:37:39.880Z,17.53
2019-03-23T10:40:10.831Z,17.05
2019-03-23T10:42:40.174Z,17.42
2019-03-23T10:45:10.528Z,16.74
2019-03-23T10:50:39.821Z,17.57
2019-03-23T10:53:09.139Z,17.37
2019-03-23T10:55:38.377Z,18.25
2019-03-23T10:58:07.616Z,18.28
2019-03-23T11:00:36.857Z,18.29
2019-03-23T11:03:06.045Z,18.79
2019-03-23T11:05:35.579Z,19.23
2019-03-23T11:08:04.828Z,18.11
2019-03-23T11:10:41.590Z,17.75
2019-03-23T11:13:05.146Z,18.95
2019-03-23T11:15:34.330Z,19.16
2019-03-23T11:28:45.909Z,19.11
2019-03-23T11:31:15.197Z,19.15
2019-03-23T11:33:44.378Z,19.59
2019-03-23T11:36:14.830Z,20.06
2019-03-23T11:38:44.146Z,19.99
2019-03-23T11:41:13.404Z,19.46
2019-03-23T11:43:42.822Z,20.16
2019-03-23T11:46:13.638Z,19.11
2019-03-23T11:48:43.375Z,19.12
2019-03-23T11:51:12.551Z,19.77
2019-03-23T11:53:42.241Z,18.87
2019-03-23T11:56:11.379Z,19.35
2019-03-23T11:58:40.864Z,18.96
2019-03-23T12:01:10.183Z,18.94
2019-03-23T12:03:39.388Z,19.04
2019-03-23T12:06:08.755Z,19.32
2019-03-23T12:08:38.382Z,19.58
2019-03-23T12:11:08.533Z,19.09
2019-03-23T12:13:37.774Z,18.61
2019-03-23T12:16:07.025Z,18.00
2019-03-23T12:18:36.329Z,18.31
2019-03-23T12:21:05.513Z,18.31
2019-03-23T12:23:34.755Z,19.04
2019-03-23T12:26:04.037Z,19.14
2019-03-23T12:28:33.391Z,18.54
2019-03-23T12:31:02.692Z,18.59
2019-03-23T12:33:31.865Z,19.73
2019-03-23T12:36:01.063Z,18.83
2019-03-23T12:38:30.243Z,19.89
2019-03-23T12:41:10.006Z,18.89
2019-03-23T12:43:30.431Z,18.56
2019-03-23T12:45:59.687Z,18.36
2019-03-23T12:48:28.928Z,18.32
2019-03-23T12:50:58.112Z,17.13
2019-03-23T12:53:27.289Z,17.13
2019-03-23T12:55:56.697Z,17.43
2019-03-23T12:58:25.961Z,17.00
2019-03-23T13:00:55.330Z,18.17
2019-03-23T13:03:24.517Z,18.59
2019-03-23T13:05:53.839Z,16.59
2019-03-23T13:08:23.424Z,17.77
2019-03-23T13:10:52.592Z,17.97
2019-03-23T13:13:21.791Z,17.62
2019-03-23T13:15:51.153Z,17.34
2019-03-23T13:18:27.073Z,16.71
2019-03-23T13:20:51.317Z,17.56
2019-03-23T13:23:20.669Z,17.68
2019-03-23T13:25:49.940Z,17.02
2019-03-23T13:28:19.264Z,16.10
2019-03-23T13:30:48.570Z,15.74
2019-03-23T13:33:17.809Z,16.29
2019-03-23T13:35:47.454Z,17.38
2019-03-23T13:38:16.765Z,15.63
2019-03-23T13:40:46.054Z,15.69
2019-03-23T13:43:15.399Z,16.05
2019-03-23T13:45:44.608Z,16.23
2019-03-23T13:48:23.827Z,16.51
2019-03-23T13:50:53.296Z,16.53
2019-03-23T13:53:22.490Z,16.78
2019-03-23T13:55:51.711Z,16.65
2019-03-23T13:58:20.994Z,16.76
2019-03-23T14:00:50.175Z,16.95
2019-03-23T14:03:19.516Z,16.52
2019-03-23T14:05:49.713Z,16.52
2019-03-23T14:08:19.005Z,15.92
2019-03-23T14:10:48.769Z,16.60
2019-03-23T14:13:18.023Z,16.49
2019-03-23T14:15:47.343Z,16.68
2019-03-23T14:18:17.496Z,17.20
2019-03-23T14:20:46.855Z,16.96
2019-03-23T14:23:16.159Z,16.99
2019-03-23T14:25:45.337Z,16.63
2019-03-23T14:28:14.512Z,17.19
2019-03-23T14:30:43.849Z,16.98
2019-03-23T14:33:13.094Z,17.56
2019-03-23T14:35:42.331Z,16.86
2019-03-23T14:38:11.741Z,17.66
2019-03-23T14:40:41.444Z,16.94
2019-03-23T14:43:10.781Z,17.33
2019-03-23T14:45:40.026Z,17.88
2019-03-23T14:48:09.228Z,18.17
2019-03-23T14:50:38.492Z,18.97
2019-03-23T14:53:08.004Z,17.19
2019-03-23T14:55:37.551Z,17.84
2019-03-23T14:58:06.835Z,17.32
2019-03-23T15:00:36.605Z,17.66
2019-03-23T15:03:05.783Z,17.42
2019-03-23T15:05:35.052Z,17.54
2019-03-23T15:08:04.241Z,18.20
2019-03-23T15:10:33.453Z,18.38
2019-03-23T15:13:02.702Z,18.39
2019-03-23T15:15:31.925Z,18.50
2019-03-23T15:18:01.106Z,18.04
2019-03-23T15:20:30.338Z,18.02
2019-03-23T15:22:59.586Z,17.81
2019-03-23T15:25:28.853Z,19.03
2019-03-23T15:27:58.443Z,18.41
2019-03-23T15:30:27.667Z,18.52
2019-03-23T15:32:56.932Z,18.49
2019-03-23T15:35:26.118Z,18.24
2019-03-23T15:37:55.356Z,18.47
2019-03-23T15:40:24.825Z,18.23
2019-03-23T15:42:54.047Z,17.76
2019-03-23T15:45:23.567Z,17.13
2019-03-23T15:47:52.754Z,17.47
2019-03-23T15:50:22.101Z,17.96
2019-03-23T15:52:51.504Z,17.87
2019-03-23T15:55:20.959Z,17.87
2019-03-23T15:57:50.207Z,18.02
2019-03-23T16:00:19.415Z,17.58
2019-03-23T16:02:48.617Z,17.64
2019-03-23T16:05:17.845Z,17.50
2019-03-23T16:07:47.094Z,16.91
2019-03-23T16:10:16.355Z,17.18
2019-03-23T16:12:45.584Z,17.56
2019-03-23T16:15:14.840Z,17.00
2019-03-23T16:17:44.069Z,17.02
2019-03-23T16:20:14.180Z,17.40
2019-03-23T16:22:43.461Z,17.41
2019-03-23T16:25:12.832Z,17.85
2019-03-23T16:27:42.145Z,18.12
2019-03-23T16:30:11.777Z,18.24
2019-03-23T16:32:41.013Z,18.32
2019-03-23T16:35:10.272Z,19.21
2019-03-23T16:37:41.536Z,19.42
2019-03-23T16:40:12.082Z,19.65
2019-03-23T16:42:45.603Z,19.30
2019-03-23T16:45:12.882Z,19.47
2019-03-23T16:47:42.076Z,19.21
2019-03-23T16:50:11.261Z,19.53
2019-03-23T16:52:40.469Z,20.09
2019-03-23T16:55:09.919Z,20.39
2019-03-23T16:57:39.126Z,20.71
2019-03-23T17:00:10.139Z,20.49
2019-03-23T17:02:39.341Z,21.03
2019-03-23T17:05:08.602Z,21.58
2019-03-23T17:07:38.122Z,21.33
2019-03-23T17:10:07.337Z,21.41
2019-03-23T17:12:36.510Z,22.08
2019-03-23T17:15:07.253Z,22.02
2019-03-23T17:17:37.553Z,21.68
2019-03-23T17:20:06.757Z,22.03
2019-03-23T17:22:35.967Z,21.93
2019-03-23T17:25:06.803Z,22.59
2019-03-23T17:27:35.975Z,22.56
2019-03-23T17:30:06.961Z,22.45
2019-03-23T17:32:37.542Z,22.67
2019-03-23T17:35:09.767Z,22.90
2019-03-23T17:37:38.966Z,23.11
2019-03-23T17:40:08.350Z,23.43
2019-03-23T17:42:37.547Z,23.79
2019-03-23T17:45:09.843Z,24.03
2019-03-23T17:47:39.083Z,24.11
2019-03-23T17:50:08.329Z,24.22
2019-03-23T17:52:37.505Z,23.76
2019-03-23T17:55:06.967Z,24.08
2019-03-23T17:57:36.189Z,25.06
2019-03-23T18:00:08.692Z,24.98
2019-03-23T18:02:37.965Z,24.98
2019-03-23T18:05:07.739Z,24.79
2019-03-23T18:07:36.912Z,25.20
2019-03-23T18:10:08.240Z,25.46
2019-03-23T18:12:37.527Z,25.47
2019-03-23T18:15:07.785Z,25.98
2019-03-23T18:17:36.882Z,25.58
2019-03-23T18:20:06.183Z,25.82
2019-03-23T18:22:35.431Z,25.88
2019-03-23T18:25:05.369Z,26.13
2019-03-23T18:27:34.611Z,26.41
2019-03-23T18:30:06.251Z,26.32
2019-03-23T18:32:35.575Z,26.76
2019-03-23T18:35:06.549Z,26.68
2019-03-23T18:37:35.736Z,27.46
2019-03-23T18:40:08.266Z,27.47
2019-03-23T18:42:36.755Z,27.68
2019-03-23T18:45:06.746Z,27.42
2019-03-23T18:47:35.941Z,28.02
2019-03-23T18:50:06.664Z,28.32
2019-03-23T18:52:35.893Z,27.93
2019-03-23T18:55:06.750Z,28.24
2019-03-23T18:57:36.079Z,27.98
2019-03-23T19:00:07.469Z,27.80
2019-03-23T19:02:36.788Z,27.59
2019-03-23T19:05:06.170Z,26.96
2019-03-23T19:07:35.432Z,26.59
2019-03-23T19:10:05.693Z,26.79
2019-03-23T19:12:35.149Z,26.53
2019-03-23T19:15:06.364Z,26.47
2019-03-23T19:17:35.912Z,26.80
2019-03-23T19:20:08.455Z,26.57
2019-03-23T19:22:37.882Z,25.54
2019-03-23T19:25:15.168Z,25.74
2019-03-23T19:27:38.596Z,25.91
2019-03-23T19:30:08.682Z,24.83
2019-03-23T19:32:38.047Z,25.44
2019-03-23T19:35:07.450Z,24.75
2019-03-23T19:37:38.826Z,24.68
2019-03-23T19:40:08.210Z,24.66
2019-03-23T19:42:37.799Z,24.62
2019-03-23T19:45:07.548Z,24.67
2019-03-23T19:47:37.319Z,23.89
2019-03-23T19:50:07.309Z,24.15
2019-03-23T19:52:36.655Z,24.33
2019-03-23T19:55:07.812Z,24.01
2019-03-23T19:57:37.233Z,24.28
2019-03-23T20:00:07.974Z,24.10
2019-03-23T20:02:37.546Z,23.84
2019-03-23T20:05:07.078Z,23.66
2019-03-23T20:07:38.098Z,23.55
2019-03-23T20:10:10.916Z,24.25
2019-03-23T20:12:40.276Z,24.16
2019-03-23T20:15:09.748Z,24.00
2019-03-23T20:17:39.259Z,24.12
2019-03-23T20:20:09.081Z,23.60
2019-03-23T20:22:38.579Z,23.97
2019-03-23T20:25:08.137Z,24.61
2019-03-23T20:27:37.469Z,24.25
2019-03-23T20:30:09.631Z,24.36
2019-03-23T20:32:39.030Z,24.19
2019-03-23T20:35:08.535Z,24.09
2019-03-23T20:37:37.984Z,24.65
2019-03-23T20:40:07.561Z,24.44
2019-03-23T20:42:37.259Z,24.86
2019-03-23T20:45:07.637Z,25.49
2019-03-23T20:47:37.527Z,24.93
2019-03-23T20:50:07.934Z,25.22
2019-03-23T20:52:37.733Z,25.28
2019-03-23T20:55:16.564Z,25.04
2019-03-23T20:57:46.044Z,25.24
2019-03-23T21:00:15.901Z,25.45
2019-03-23T21:02:45.328Z,25.79
2019-03-23T21:05:14.984Z,26.10
2019-03-23T21:07:44.356Z,26.08
2019-03-23T21:10:13.777Z,26.58
2019-03-23T21:12:43.504Z,26.68
2019-03-23T21:15:12.997Z,26.60
2019-03-23T21:17:50.988Z,26.50
2019-03-23T21:20:13.758Z,26.69
2019-03-23T21:22:43.239Z,26.59
2019-03-23T21:25:12.639Z,27.26
2019-03-23T21:27:42.350Z,27.48
2019-03-23T21:30:14.385Z,27.66
2019-03-23T21:32:43.765Z,28.25
2019-03-23T21:35:15.583Z,28.72
2019-03-23T21:37:44.325Z,29.54
2019-03-23T21:40:13.719Z,29.81
2019-03-23T21:42:43.295Z,29.93
2019-03-23T21:45:12.792Z,30.28
2019-03-23T21:47:42.191Z,30.50
2019-03-23T21:50:12.486Z,31.03
2019-03-23T21:52:42.050Z,30.99
2019-03-23T21:55:11.630Z,31.08
2019-03-23T21:57:41.069Z,30.84
2019-03-23T22:00:10.635Z,31.03
2019-03-23T22:02:40.006Z,31.05
2019-03-23T22:05:09.487Z,31.31
2019-03-23T22:07:38.890Z,31.07
2019-03-23T22:10:08.283Z,30.96
2019-03-23T22:12:38.151Z,31.04
2019-03-23T22:15:08.648Z,31.14
2019-03-23T22:17:37.968Z,31.50
2019-03-23T22:20:08.641Z,31.91
2019-03-23T22:22:38.075Z,32.50
2019-03-23T22:25:08.350Z,32.79
2019-03-23T22:27:37.940Z,32.83
2019-03-23T22:30:10.798Z,33.00
2019-03-23T22:32:41.568Z,33.05
2019-03-23T22:35:10.966Z,33.08
2019-03-23T22:37:40.673Z,33.06
2019-03-23T22:40:13.183Z,32.99
2019-03-23T22:42:42.689Z,33.20
2019-03-23T22:45:12.223Z,33.91
2019-03-23T22:47:41.608Z,34.29
2019-03-23T22:50:11.231Z,34.59
2019-03-23T22:52:40.995Z,34.75
2019-03-23T22:55:10.441Z,34.83
2019-03-23T22:57:39.845Z,35.02
2019-03-23T23:00:16.587Z,35.53
2019-03-23T23:02:46.155Z,35.55
2019-03-23T23:05:15.750Z,36.31
2019-03-23T23:07:46.074Z,36.67
2019-03-23T23:10:15.433Z,37.33
2019-03-23T23:12:44.935Z,37.71
2019-03-23T23:15:14.236Z,38.61
2019-03-23T23:17:43.918Z,39.61
2019-03-23T23:20:13.211Z,40.62
2019-03-23T23:22:42.450Z,41.44
2019-03-23T23:25:11.962Z,41.45
2019-03-23T23:27:41.283Z,41.96
2019-03-23T23:30:11.036Z,42.64
2019-03-23T23:32:40.463Z,42.64
2019-03-23T23:35:09.967Z,43.37
2019-03-23T23:37:39.304Z,44.07
2019-03-23T23:40:08.555Z,43.86
2019-03-23T23:42:37.896Z,44.07
2019-03-23T23:45:15.345Z,45.17
2019-03-23T23:47:39.869Z,45.29
2019-03-23T23:50:09.235Z,44.87
2019-03-23T23:52:38.568Z,45.93
2019-03-23T23:55:07.980Z,46.33
2019-03-23T23:57:37.323Z,45.57
